SJX313 ROAH-RCMQ
Flight info
| Callsign | SJX313 |
|---|---|
| Flight time | 1h 16m |
| Altitude | 34000 |
| Route | GANJU2 GANJU Y576 LILRA R595 APU A1 WUCHI DCT 36 |
| Aircraft | A320/M-SDE1E2E3FGHIJ2J3J4J5M1RWXYZ/LB1D1 |
Departure
| Time | 2026-04-21 04:58 |
|---|---|
| Airport | Naha International Airport (ROAH) |
Arrival
| Time | 2026-04-21 06:15 |
|---|---|
| Airport | Taichung International Airport / Ching Chuang Kang Air Base (RCMQ) |
| Time | Latitude | Longitude | Altitude | Speed | Heading |
|---|---|---|---|---|---|
| 2026-04-21 04:51 | 26.20415 | 127.64749 | 19 ft | 0 kts | 174° |
| 2026-04-21 04:51 | 26.20413 | 127.64749 | 18 ft | 2 kts | 174° |
| 2026-04-21 04:51 | 26.20376 | 127.64754 | 17 ft | 8 kts | 173° |
| 2026-04-21 04:52 | 26.20309 | 127.64760 | 17 ft | 10 kts | 176° |
| 2026-04-21 04:52 | 26.20227 | 127.64763 | 17 ft | 13 kts | 178° |
| 2026-04-21 04:52 | 26.20122 | 127.64768 | 17 ft | 17 kts | 177° |
| 2026-04-21 04:52 | 26.19996 | 127.64774 | 17 ft | 19 kts | 178° |
| 2026-04-21 04:53 | 26.19851 | 127.64783 | 17 ft | 22 kts | 175° |
| 2026-04-21 04:53 | 26.19688 | 127.64800 | 17 ft | 25 kts | 173° |
| 2026-04-21 04:53 | 26.19543 | 127.64798 | 17 ft | 21 kts | 180° |
| 2026-04-21 04:53 | 26.19391 | 127.64803 | 17 ft | 22 kts | 177° |
| 2026-04-21 04:54 | 26.19233 | 127.64810 | 17 ft | 24 kts | 177° |
| 2026-04-21 04:54 | 26.19064 | 127.64819 | 17 ft | 23 kts | 177° |
| 2026-04-21 04:54 | 26.18900 | 127.64826 | 16 ft | 23 kts | 177° |
| 2026-04-21 04:54 | 26.18733 | 127.64834 | 17 ft | 24 kts | 178° |
| 2026-04-21 04:55 | 26.18561 | 127.64842 | 16 ft | 25 kts | 178° |
| 2026-04-21 04:55 | 26.18415 | 127.64849 | 17 ft | 19 kts | 178° |
| 2026-04-21 04:55 | 26.18313 | 127.64854 | 16 ft | 12 kts | 179° |
| 2026-04-21 04:55 | 26.18248 | 127.64802 | 16 ft | 14 kts | 255° |
| 2026-04-21 04:56 | 26.18243 | 127.64758 | 16 ft | 0 kts | 266° |
| 2026-04-21 04:57 | 26.18242 | 127.64738 | 16 ft | 6 kts | 268° |
| 2026-04-21 04:57 | 26.18243 | 127.64676 | 15 ft | 8 kts | 288° |
| 2026-04-21 04:57 | 26.18295 | 127.64649 | 16 ft | 11 kts | 353° |
| 2026-04-21 04:57 | 26.18461 | 127.64642 | 16 ft | 52 kts | 357° |
| 2026-04-21 04:58 | 26.19043 | 127.64613 | 18 ft | 114 kts | 358° |
| 2026-04-21 04:58 | 26.20009 | 127.64564 | 68 ft | 156 kts | 357° |
| 2026-04-21 04:58 | 26.21058 | 127.64514 | 800 ft | 152 kts | 355° |
| 2026-04-21 04:58 | 26.22159 | 127.64439 | 1384 ft | 164 kts | 352° |
| 2026-04-21 04:59 | 26.23351 | 127.64328 | 1870 ft | 179 kts | 353° |
| 2026-04-21 04:59 | 26.24661 | 127.64267 | 2308 ft | 198 kts | 356° |
| 2026-04-21 04:59 | 26.26096 | 127.64076 | 2710 ft | 219 kts | 338° |
| 2026-04-21 04:59 | 26.27511 | 127.63259 | 3283 ft | 240 kts | 329° |
| 2026-04-21 05:00 | 26.28995 | 127.62319 | 3987 ft | 254 kts | 329° |
| 2026-04-21 05:00 | 26.30541 | 127.61328 | 4960 ft | 258 kts | 328° |
| 2026-04-21 05:00 | 26.33704 | 127.59288 | 6824 ft | 266 kts | 327° |
| 2026-04-21 05:01 | 26.35319 | 127.58243 | 7702 ft | 271 kts | 327° |
| 2026-04-21 05:01 | 26.36941 | 127.57193 | 8535 ft | 275 kts | 328° |
| 2026-04-21 05:01 | 26.38596 | 127.56078 | 9379 ft | 279 kts | 321° |
| 2026-04-21 05:01 | 26.39969 | 127.54550 | 10165 ft | 282 kts | 303° |
| 2026-04-21 05:02 | 26.40815 | 127.52509 | 10523 ft | 302 kts | 283° |
| 2026-04-21 05:02 | 26.40857 | 127.50088 | 10744 ft | 327 kts | 260° |
| 2026-04-21 05:02 | 26.39961 | 127.47691 | 11187 ft | 343 kts | 237° |
| 2026-04-21 05:02 | 26.38443 | 127.45605 | 11866 ft | 350 kts | 230° |
| 2026-04-21 05:03 | 26.36766 | 127.43608 | 12543 ft | 356 kts | 228° |
| 2026-04-21 05:03 | 26.35056 | 127.41585 | 13222 ft | 361 kts | 229° |
| 2026-04-21 05:03 | 26.33262 | 127.39592 | 13870 ft | 367 kts | 225° |
| 2026-04-21 05:03 | 26.31407 | 127.37618 | 14505 ft | 369 kts | 226° |
| 2026-04-21 05:04 | 26.29562 | 127.35619 | 15214 ft | 371 kts | 226° |
| 2026-04-21 05:04 | 26.27714 | 127.33600 | 15887 ft | 373 kts | 226° |
| 2026-04-21 05:04 | 26.25876 | 127.31585 | 16507 ft | 377 kts | 226° |
| 2026-04-21 05:04 | 26.24004 | 127.29535 | 17138 ft | 379 kts | 226° |
| 2026-04-21 05:05 | 26.22110 | 127.27462 | 17768 ft | 382 kts | 226° |
| 2026-04-21 05:05 | 26.20206 | 127.25380 | 18370 ft | 385 kts | 226° |
| 2026-04-21 05:05 | 26.18285 | 127.23282 | 18899 ft | 387 kts | 226° |
| 2026-04-21 05:05 | 26.16359 | 127.21180 | 19460 ft | 389 kts | 226° |
| 2026-04-21 05:06 | 26.14417 | 127.19062 | 20007 ft | 392 kts | 226° |
| 2026-04-21 05:06 | 26.12580 | 127.16820 | 20547 ft | 392 kts | 233° |
| 2026-04-21 05:06 | 26.11016 | 127.14342 | 21098 ft | 392 kts | 240° |
| 2026-04-21 05:06 | 26.09574 | 127.11755 | 21647 ft | 394 kts | 240° |
| 2026-04-21 05:07 | 26.08113 | 127.09157 | 22198 ft | 397 kts | 240° |
| 2026-04-21 05:07 | 26.06638 | 127.06545 | 22751 ft | 399 kts | 240° |
| 2026-04-21 05:07 | 26.05157 | 127.03928 | 23279 ft | 401 kts | 240° |
| 2026-04-21 05:07 | 26.03681 | 127.01323 | 23778 ft | 403 kts | 240° |
| 2026-04-21 05:08 | 26.02184 | 126.98681 | 24263 ft | 404 kts | 240° |
| 2026-04-21 05:08 | 26.00681 | 126.96031 | 24732 ft | 406 kts | 240° |
| 2026-04-21 05:08 | 25.99171 | 126.93369 | 25196 ft | 407 kts | 240° |
| 2026-04-21 05:08 | 25.97659 | 126.90704 | 25645 ft | 409 kts | 240° |
| 2026-04-21 05:09 | 25.96136 | 126.88021 | 26101 ft | 411 kts | 240° |
| 2026-04-21 05:09 | 25.94605 | 126.85327 | 26534 ft | 412 kts | 240° |
| 2026-04-21 05:09 | 25.93070 | 126.82627 | 26959 ft | 414 kts | 240° |
| 2026-04-21 05:09 | 25.91527 | 126.79912 | 27383 ft | 416 kts | 240° |
| 2026-04-21 05:10 | 25.89977 | 126.77189 | 27802 ft | 418 kts | 240° |
| 2026-04-21 05:10 | 25.88436 | 126.74482 | 28197 ft | 419 kts | 240° |
| 2026-04-21 05:10 | 25.86874 | 126.71739 | 28600 ft | 421 kts | 241° |
| 2026-04-21 05:10 | 25.85374 | 126.68933 | 28980 ft | 422 kts | 243° |
| 2026-04-21 05:11 | 25.83931 | 126.66076 | 29357 ft | 424 kts | 243° |
| 2026-04-21 05:11 | 25.82497 | 126.63215 | 29723 ft | 426 kts | 243° |
| 2026-04-21 05:11 | 25.81043 | 126.60333 | 30073 ft | 428 kts | 243° |
| 2026-04-21 05:11 | 25.79595 | 126.57487 | 30386 ft | 430 kts | 243° |
| 2026-04-21 05:12 | 25.78118 | 126.54603 | 30695 ft | 431 kts | 243° |
| 2026-04-21 05:12 | 25.76630 | 126.51708 | 31006 ft | 433 kts | 243° |
| 2026-04-21 05:12 | 25.75129 | 126.48791 | 31342 ft | 434 kts | 243° |
| 2026-04-21 05:12 | 25.73635 | 126.45893 | 31740 ft | 433 kts | 243° |
| 2026-04-21 05:13 | 25.72141 | 126.42994 | 32141 ft | 432 kts | 243° |
| 2026-04-21 05:13 | 25.70649 | 126.40101 | 32538 ft | 431 kts | 243° |
| 2026-04-21 05:13 | 25.69165 | 126.37226 | 32924 ft | 430 kts | 244° |
| 2026-04-21 05:13 | 25.67682 | 126.34354 | 33306 ft | 429 kts | 244° |
| 2026-04-21 05:14 | 25.66198 | 126.31480 | 33653 ft | 428 kts | 244° |
| 2026-04-21 05:14 | 25.64736 | 126.28651 | 33965 ft | 427 kts | 244° |
| 2026-04-21 05:14 | 25.61781 | 126.22940 | 34042 ft | 425 kts | 244° |
| 2026-04-21 05:15 | 25.58830 | 126.17243 | 34045 ft | 426 kts | 244° |
| 2026-04-21 05:15 | 25.56382 | 126.12520 | 34043 ft | 426 kts | 244° |
| 2026-04-21 05:16 | 25.52943 | 126.05897 | 34045 ft | 426 kts | 244° |
| 2026-04-21 05:16 | 25.49979 | 126.00197 | 34042 ft | 426 kts | 244° |
| 2026-04-21 05:17 | 25.47514 | 125.95459 | 34050 ft | 427 kts | 244° |
| 2026-04-21 05:17 | 25.44560 | 125.89791 | 34053 ft | 427 kts | 244° |
| 2026-04-21 05:18 | 25.41592 | 125.84104 | 34050 ft | 427 kts | 244° |
| 2026-04-21 05:18 | 25.38614 | 125.78408 | 34048 ft | 427 kts | 244° |
| 2026-04-21 05:19 | 25.35635 | 125.72715 | 34046 ft | 427 kts | 244° |
| 2026-04-21 05:19 | 25.32635 | 125.67041 | 34043 ft | 427 kts | 243° |
| 2026-04-21 05:20 | 25.29609 | 125.61378 | 34044 ft | 427 kts | 243° |
| 2026-04-21 05:20 | 25.26604 | 125.55752 | 34043 ft | 427 kts | 243° |
| 2026-04-21 05:21 | 25.23577 | 125.50086 | 34043 ft | 428 kts | 243° |
| 2026-04-21 05:21 | 25.20549 | 125.44423 | 34039 ft | 428 kts | 243° |
| 2026-04-21 05:22 | 25.17517 | 125.38761 | 34042 ft | 428 kts | 243° |
| 2026-04-21 05:22 | 25.14486 | 125.33106 | 34044 ft | 427 kts | 243° |
| 2026-04-21 05:23 | 25.11476 | 125.27496 | 34040 ft | 427 kts | 243° |
| 2026-04-21 05:23 | 25.08125 | 125.22043 | 34034 ft | 431 kts | 237° |
| 2026-04-21 05:24 | 25.04523 | 125.16756 | 34032 ft | 430 kts | 237° |
| 2026-04-21 05:24 | 25.00934 | 125.11473 | 34044 ft | 430 kts | 237° |
| 2026-04-21 05:25 | 24.97259 | 125.06244 | 34024 ft | 431 kts | 234° |
| 2026-04-21 05:25 | 24.93453 | 125.01185 | 34030 ft | 431 kts | 234° |
| 2026-04-21 05:26 | 24.89635 | 124.96084 | 34029 ft | 431 kts | 234° |
| 2026-04-21 05:26 | 24.86020 | 124.90844 | 34034 ft | 426 kts | 244° |
| 2026-04-21 05:27 | 24.84027 | 124.84805 | 34023 ft | 418 kts | 262° |
| 2026-04-21 05:27 | 24.84000 | 124.78451 | 34016 ft | 416 kts | 278° |
| 2026-04-21 05:28 | 24.84788 | 124.72134 | 34016 ft | 416 kts | 277° |
| 2026-04-21 05:28 | 24.85553 | 124.65804 | 34016 ft | 417 kts | 277° |
| 2026-04-21 05:29 | 24.86310 | 124.59510 | 34029 ft | 417 kts | 277° |
| 2026-04-21 05:29 | 24.87071 | 124.53168 | 34019 ft | 418 kts | 277° |
| 2026-04-21 05:30 | 24.87832 | 124.46804 | 34021 ft | 419 kts | 277° |
| 2026-04-21 05:30 | 24.88591 | 124.40428 | 34028 ft | 420 kts | 277° |
| 2026-04-21 05:31 | 24.89349 | 124.34045 | 34038 ft | 421 kts | 277° |
| 2026-04-21 05:31 | 24.90101 | 124.27684 | 34038 ft | 421 kts | 277° |
| 2026-04-21 05:32 | 24.90856 | 124.21277 | 34044 ft | 422 kts | 277° |
| 2026-04-21 05:32 | 24.91608 | 124.14861 | 34054 ft | 422 kts | 276° |
| 2026-04-21 05:33 | 24.92359 | 124.08438 | 34047 ft | 423 kts | 276° |
| 2026-04-21 05:33 | 24.93109 | 124.02002 | 34048 ft | 423 kts | 276° |
| 2026-04-21 05:34 | 24.93832 | 123.95563 | 34049 ft | 423 kts | 276° |
| 2026-04-21 05:34 | 24.94505 | 123.89123 | 34049 ft | 423 kts | 276° |
| 2026-04-21 05:35 | 24.95180 | 123.82683 | 34046 ft | 423 kts | 276° |
| 2026-04-21 05:35 | 24.95853 | 123.76278 | 34051 ft | 423 kts | 276° |
| 2026-04-21 05:36 | 24.96529 | 123.69835 | 34039 ft | 422 kts | 276° |
| 2026-04-21 05:36 | 24.97206 | 123.63403 | 34029 ft | 422 kts | 274° |
| 2026-04-21 05:37 | 24.97874 | 123.56963 | 34027 ft | 422 kts | 275° |
| 2026-04-21 05:37 | 24.98535 | 123.50570 | 34032 ft | 422 kts | 275° |
| 2026-04-21 05:38 | 24.99200 | 123.44134 | 34029 ft | 422 kts | 275° |
| 2026-04-21 05:38 | 24.99862 | 123.37689 | 34029 ft | 422 kts | 275° |
| 2026-04-21 05:39 | 25.00519 | 123.31254 | 34028 ft | 422 kts | 275° |
| 2026-04-21 05:39 | 25.01173 | 123.24824 | 34031 ft | 422 kts | 275° |
| 2026-04-21 05:40 | 25.01821 | 123.18413 | 34032 ft | 422 kts | 276° |
| 2026-04-21 05:40 | 25.02469 | 123.11976 | 34030 ft | 423 kts | 276° |
| 2026-04-21 05:41 | 25.03115 | 123.05515 | 34026 ft | 423 kts | 276° |
| 2026-04-21 05:41 | 25.03755 | 122.99097 | 34025 ft | 423 kts | 276° |
| 2026-04-21 05:42 | 25.04398 | 122.92645 | 34026 ft | 423 kts | 276° |
| 2026-04-21 05:42 | 25.05038 | 122.86200 | 34031 ft | 423 kts | 277° |
| 2026-04-21 05:43 | 25.05676 | 122.79752 | 34025 ft | 423 kts | 277° |
| 2026-04-21 05:43 | 25.06312 | 122.73293 | 34026 ft | 423 kts | 277° |
| 2026-04-21 05:44 | 25.06941 | 122.66876 | 34021 ft | 423 kts | 277° |
| 2026-04-21 05:44 | 25.07571 | 122.60414 | 34023 ft | 423 kts | 277° |
| 2026-04-21 05:45 | 25.08199 | 122.53955 | 34014 ft | 423 kts | 278° |
| 2026-04-21 05:45 | 25.08820 | 122.47537 | 34017 ft | 423 kts | 278° |
| 2026-04-21 05:46 | 25.09442 | 122.41081 | 34015 ft | 423 kts | 278° |
| 2026-04-21 05:46 | 25.10061 | 122.34627 | 34017 ft | 423 kts | 278° |
| 2026-04-21 05:47 | 25.10681 | 122.28177 | 34013 ft | 422 kts | 278° |
| 2026-04-21 05:47 | 25.11236 | 122.21725 | 34013 ft | 422 kts | 277° |
| 2026-04-21 05:48 | 25.11764 | 122.15309 | 34008 ft | 422 kts | 277° |
| 2026-04-21 05:48 | 25.12301 | 122.08857 | 34010 ft | 421 kts | 277° |
| 2026-04-21 05:49 | 25.12842 | 122.02420 | 34012 ft | 421 kts | 277° |
| 2026-04-21 05:49 | 25.13416 | 121.95987 | 34003 ft | 420 kts | 278° |
| 2026-04-21 05:50 | 25.14059 | 121.89584 | 33995 ft | 419 kts | 278° |
| 2026-04-21 05:50 | 25.14693 | 121.83221 | 33980 ft | 419 kts | 278° |
| 2026-04-21 05:51 | 25.15317 | 121.76830 | 33974 ft | 418 kts | 278° |
| 2026-04-21 05:51 | 25.15936 | 121.70448 | 33972 ft | 417 kts | 278° |
| 2026-04-21 05:52 | 25.16549 | 121.64096 | 33978 ft | 417 kts | 278° |
| 2026-04-21 05:52 | 25.17015 | 121.57692 | 33973 ft | 419 kts | 270° |
| 2026-04-21 05:53 | 25.15848 | 121.51405 | 33966 ft | 426 kts | 252° |
| 2026-04-21 05:53 | 25.12722 | 121.45771 | 33968 ft | 438 kts | 234° |
| 2026-04-21 05:54 | 25.08767 | 121.40669 | 33960 ft | 437 kts | 234° |
| 2026-04-21 05:54 | 25.04822 | 121.35556 | 33923 ft | 437 kts | 234° |
| 2026-04-21 05:55 | 25.00911 | 121.30494 | 33761 ft | 434 kts | 234° |
| 2026-04-21 05:55 | 24.98953 | 121.27963 | 33270 ft | 433 kts | 234° |
| 2026-04-21 05:55 | 24.96969 | 121.25399 | 32554 ft | 434 kts | 234° |
| 2026-04-21 05:56 | 24.95031 | 121.22895 | 31780 ft | 436 kts | 234° |
| 2026-04-21 05:56 | 24.93037 | 121.20318 | 30951 ft | 438 kts | 233° |
| 2026-04-21 05:56 | 24.91076 | 121.17787 | 30194 ft | 439 kts | 233° |
| 2026-04-21 05:56 | 24.89094 | 121.15233 | 29518 ft | 436 kts | 233° |
| 2026-04-21 05:57 | 24.87133 | 121.12707 | 28907 ft | 432 kts | 233° |
| 2026-04-21 05:57 | 24.85188 | 121.10203 | 28307 ft | 427 kts | 233° |
| 2026-04-21 05:57 | 24.83266 | 121.07730 | 27679 ft | 423 kts | 233° |
| 2026-04-21 05:57 | 24.81359 | 121.05275 | 27088 ft | 420 kts | 232° |
| 2026-04-21 05:58 | 24.79472 | 121.02844 | 26515 ft | 416 kts | 232° |
| 2026-04-21 05:58 | 24.77595 | 121.00428 | 25948 ft | 412 kts | 232° |
| 2026-04-21 05:58 | 24.75739 | 120.98040 | 25401 ft | 409 kts | 232° |
| 2026-04-21 05:58 | 24.73899 | 120.95675 | 24863 ft | 405 kts | 232° |
| 2026-04-21 05:59 | 24.72070 | 120.93324 | 24333 ft | 402 kts | 232° |
| 2026-04-21 05:59 | 24.70259 | 120.90998 | 23799 ft | 399 kts | 231° |
| 2026-04-21 05:59 | 24.68466 | 120.88697 | 23112 ft | 393 kts | 231° |
| 2026-04-21 06:00 | 24.64946 | 120.84185 | 21407 ft | 384 kts | 231° |
| 2026-04-21 06:00 | 24.63219 | 120.81973 | 20607 ft | 379 kts | 231° |
| 2026-04-21 06:00 | 24.61503 | 120.79775 | 19997 ft | 377 kts | 231° |
| 2026-04-21 06:00 | 24.59846 | 120.77654 | 19527 ft | 373 kts | 231° |
| 2026-04-21 06:01 | 24.58690 | 120.76175 | 19176 ft | 371 kts | 231° |
| 2026-04-21 06:01 | 24.56473 | 120.73340 | 18518 ft | 367 kts | 231° |
| 2026-04-21 06:01 | 24.55339 | 120.71965 | 18154 ft | 365 kts | 228° |
| 2026-04-21 06:01 | 24.53588 | 120.69975 | 17453 ft | 362 kts | 228° |
| 2026-04-21 06:02 | 24.51846 | 120.67989 | 16895 ft | 359 kts | 228° |
| 2026-04-21 06:02 | 24.50122 | 120.66020 | 16350 ft | 356 kts | 228° |
| 2026-04-21 06:02 | 24.48412 | 120.64067 | 15816 ft | 353 kts | 228° |
| 2026-04-21 06:02 | 24.46714 | 120.62129 | 15282 ft | 351 kts | 228° |
| 2026-04-21 06:03 | 24.45030 | 120.60209 | 14757 ft | 348 kts | 228° |
| 2026-04-21 06:03 | 24.43351 | 120.58295 | 14263 ft | 346 kts | 228° |
| 2026-04-21 06:03 | 24.41688 | 120.56400 | 13748 ft | 344 kts | 228° |
| 2026-04-21 06:03 | 24.40033 | 120.54515 | 13214 ft | 341 kts | 228° |
| 2026-04-21 06:04 | 24.38395 | 120.52649 | 12703 ft | 338 kts | 227° |
| 2026-04-21 06:04 | 24.36771 | 120.50800 | 12205 ft | 334 kts | 227° |
| 2026-04-21 06:04 | 24.35185 | 120.48994 | 11702 ft | 332 kts | 227° |
| 2026-04-21 06:04 | 24.33586 | 120.47176 | 11211 ft | 329 kts | 227° |
| 2026-04-21 06:05 | 24.32004 | 120.45377 | 10735 ft | 326 kts | 226° |
| 2026-04-21 06:05 | 24.30435 | 120.43593 | 10326 ft | 321 kts | 226° |
| 2026-04-21 06:05 | 24.28917 | 120.41870 | 10196 ft | 307 kts | 226° |
| 2026-04-21 06:05 | 24.27467 | 120.40225 | 10084 ft | 293 kts | 226° |
| 2026-04-21 06:06 | 24.26083 | 120.38655 | 9970 ft | 280 kts | 226° |
| 2026-04-21 06:06 | 24.24741 | 120.37131 | 9646 ft | 275 kts | 226° |
| 2026-04-21 06:06 | 24.23416 | 120.35629 | 9252 ft | 273 kts | 225° |
| 2026-04-21 06:06 | 24.21965 | 120.34311 | 8821 ft | 272 kts | 207° |
| 2026-04-21 06:07 | 24.20145 | 120.33813 | 8417 ft | 273 kts | 181° |
| 2026-04-21 06:07 | 24.18324 | 120.34271 | 8012 ft | 277 kts | 156° |
| 2026-04-21 06:07 | 24.16844 | 120.35615 | 7621 ft | 281 kts | 129° |
| 2026-04-21 06:07 | 24.16015 | 120.37567 | 7239 ft | 286 kts | 109° |
| 2026-04-21 06:08 | 24.15530 | 120.39676 | 6884 ft | 284 kts | 108° |
| 2026-04-21 06:08 | 24.14972 | 120.41732 | 6551 ft | 280 kts | 112° |
| 2026-04-21 06:08 | 24.14262 | 120.43718 | 6160 ft | 279 kts | 117° |
| 2026-04-21 06:08 | 24.13445 | 120.45626 | 5798 ft | 276 kts | 119° |
| 2026-04-21 06:09 | 24.12568 | 120.47497 | 5438 ft | 276 kts | 120° |
| 2026-04-21 06:09 | 24.11676 | 120.49338 | 5167 ft | 273 kts | 120° |
| 2026-04-21 06:09 | 24.10788 | 120.51158 | 4871 ft | 274 kts | 120° |
| 2026-04-21 06:09 | 24.09894 | 120.52996 | 4435 ft | 273 kts | 120° |
| 2026-04-21 06:10 | 24.09003 | 120.54831 | 3927 ft | 273 kts | 120° |
| 2026-04-21 06:10 | 24.08115 | 120.56643 | 3701 ft | 267 kts | 119° |
| 2026-04-21 06:10 | 24.07231 | 120.58450 | 3597 ft | 268 kts | 119° |
| 2026-04-21 06:10 | 24.06625 | 120.60309 | 3624 ft | 255 kts | 95° |
| 2026-04-21 06:11 | 24.06986 | 120.62144 | 3489 ft | 246 kts | 57° |
| 2026-04-21 06:11 | 24.08232 | 120.63321 | 3411 ft | 236 kts | 18° |
| 2026-04-21 06:11 | 24.09817 | 120.63458 | 3305 ft | 227 kts | 351° |
| 2026-04-21 06:11 | 24.11353 | 120.63205 | 3172 ft | 223 kts | 350° |
| 2026-04-21 06:12 | 24.12894 | 120.63006 | 2938 ft | 222 kts | 353° |
| 2026-04-21 06:12 | 24.14417 | 120.62874 | 2681 ft | 216 kts | 355° |
| 2026-04-21 06:12 | 24.15871 | 120.62780 | 2436 ft | 200 kts | 355° |
| 2026-04-21 06:12 | 24.17200 | 120.62691 | 2177 ft | 185 kts | 354° |
| 2026-04-21 06:13 | 24.18427 | 120.62609 | 1930 ft | 168 kts | 354° |
| 2026-04-21 06:13 | 24.19538 | 120.62533 | 1728 ft | 153 kts | 355° |
| 2026-04-21 06:13 | 24.20549 | 120.62467 | 1514 ft | 136 kts | 354° |
| 2026-04-21 06:13 | 24.21437 | 120.62403 | 1361 ft | 125 kts | 352° |
| 2026-04-21 06:14 | 24.22334 | 120.62347 | 1193 ft | 131 kts | 354° |
| 2026-04-21 06:14 | 24.23252 | 120.62299 | 995 ft | 133 kts | 354° |
| 2026-04-21 06:14 | 24.24165 | 120.62232 | 793 ft | 133 kts | 354° |
| 2026-04-21 06:14 | 24.25080 | 120.62171 | 686 ft | 130 kts | 354° |
| 2026-04-21 06:15 | 24.25846 | 120.62115 | 669 ft | 76 kts | 356° |
| 2026-04-21 06:15 | 24.26145 | 120.62098 | 669 ft | 31 kts | 355° |
| 2026-04-21 06:15 | 24.26363 | 120.62083 | 666 ft | 31 kts | 356° |
| 2026-04-21 06:15 | 24.26572 | 120.62070 | 667 ft | 29 kts | 357° |
| 2026-04-21 06:16 | 24.26776 | 120.62056 | 665 ft | 29 kts | 355° |
| 2026-04-21 06:16 | 24.26967 | 120.62044 | 666 ft | 21 kts | 357° |
| 2026-04-21 06:16 | 24.27113 | 120.62014 | 665 ft | 22 kts | 342° |
| 2026-04-21 06:16 | 24.27244 | 120.61942 | 665 ft | 18 kts | 326° |
| 2026-04-21 06:17 | 24.27317 | 120.61854 | 664 ft | 15 kts | 284° |
| 2026-04-21 06:17 | 24.27320 | 120.61814 | 664 ft | 0 kts | 266° |
| 2026-04-21 06:17 | 24.27320 | 120.61812 | 664 ft | 2 kts | 266° |
| 2026-04-21 06:18 | 24.27316 | 120.61752 | 664 ft | 11 kts | 266° |
| 2026-04-21 06:18 | 24.27310 | 120.61653 | 664 ft | 14 kts | 266° |
| 2026-04-21 06:18 | 24.27302 | 120.61535 | 664 ft | 16 kts | 266° |
| 2026-04-21 06:18 | 24.27298 | 120.61403 | 664 ft | 18 kts | 267° |
| 2026-04-21 06:19 | 24.27288 | 120.61259 | 664 ft | 20 kts | 266° |
| 2026-04-21 06:19 | 24.27284 | 120.61131 | 664 ft | 14 kts | 268° |
| 2026-04-21 06:19 | 24.27242 | 120.61031 | 664 ft | 16 kts | 214° |
| 2026-04-21 06:19 | 24.27135 | 120.60974 | 665 ft | 18 kts | 206° |
| 2026-04-21 06:20 | 24.27012 | 120.60911 | 665 ft | 21 kts | 204° |
| 2026-04-21 06:20 | 24.26876 | 120.60843 | 666 ft | 23 kts | 203° |
| 2026-04-21 06:20 | 24.26736 | 120.60771 | 666 ft | 22 kts | 206° |
| 2026-04-21 06:20 | 24.26592 | 120.60697 | 666 ft | 20 kts | 206° |
| 2026-04-21 06:21 | 24.26462 | 120.60631 | 667 ft | 22 kts | 205° |
| 2026-04-21 06:21 | 24.26320 | 120.60558 | 667 ft | 23 kts | 204° |
| 2026-04-21 06:21 | 24.26167 | 120.60479 | 668 ft | 25 kts | 205° |
| 2026-04-21 06:21 | 24.26035 | 120.60415 | 668 ft | 20 kts | 200° |
| 2026-04-21 06:22 | 24.25907 | 120.60381 | 667 ft | 19 kts | 194° |
| 2026-04-21 06:22 | 24.25793 | 120.60328 | 669 ft | 17 kts | 205° |
| 2026-04-21 06:22 | 24.25675 | 120.60269 | 669 ft | 20 kts | 205° |
| 2026-04-21 06:22 | 24.25555 | 120.60208 | 669 ft | 18 kts | 205° |
| 2026-04-21 06:23 | 24.25462 | 120.60160 | 670 ft | 16 kts | 206° |
| 2026-04-21 06:23 | 24.25371 | 120.60113 | 670 ft | 11 kts | 206° |
| 2026-04-21 06:23 | 24.25309 | 120.60080 | 670 ft | 8 kts | 207° |
| 2026-04-21 06:23 | 24.25306 | 120.60025 | 670 ft | 9 kts | 293° |
| 2026-04-21 06:24 | 24.25321 | 120.59990 | 670 ft | 0 kts | 295° |